createdAt,value
2023-02-21T00:02:13.886Z,100289.34
2023-02-21T00:04:40.828Z,100287.81
2023-02-21T00:07:08.998Z,100287.66
2023-02-21T00:09:38.520Z,100281.94
2023-02-21T00:12:06.235Z,100275.94
2023-02-21T00:14:33.017Z,100277.66
2023-02-21T00:17:00.322Z,100276.16
2023-02-21T00:19:27.207Z,100284.56
2023-02-21T00:21:54.344Z,100278.53
2023-02-21T00:24:22.572Z,100279.53
2023-02-21T00:26:49.444Z,100274.00
2023-02-21T00:29:16.538Z,100266.28
2023-02-21T00:31:43.344Z,100268.78
2023-02-21T00:34:11.350Z,100267.94
2023-02-21T00:36:38.224Z,100266.78
2023-02-21T00:39:05.025Z,100263.94
2023-02-21T00:41:33.826Z,100265.97
2023-02-21T00:44:00.911Z,100270.16
2023-02-21T00:46:27.918Z,100272.34
2023-02-21T00:48:55.258Z,100274.69
2023-02-21T00:51:22.191Z,100277.66
2023-02-21T00:53:49.444Z,100266.63
2023-02-21T00:56:16.259Z,100263.63
2023-02-21T00:58:46.792Z,100265.78
2023-02-21T01:01:14.047Z,100266.97
2023-02-21T01:03:41.522Z,100269.66
2023-02-21T01:06:10.929Z,100261.94
2023-02-21T01:08:42.002Z,100266.28
2023-02-21T01:11:15.918Z,100261.59
2023-02-21T01:13:43.445Z,100259.25
2023-02-21T01:16:12.213Z,100270.84
2023-02-21T01:18:40.475Z,100265.13
2023-02-21T01:21:13.624Z,100278.84
2023-02-21T01:23:40.610Z,100269.13
2023-02-21T01:26:09.691Z,100274.16
2023-02-21T01:28:36.610Z,100264.44
2023-02-21T01:31:03.712Z,100257.56
2023-02-21T01:33:37.858Z,100265.28
2023-02-21T01:36:06.215Z,100266.44
2023-02-21T01:38:33.811Z,100271.63
2023-02-21T01:41:00.970Z,100263.94
2023-02-21T01:43:29.380Z,100252.22
2023-02-21T01:45:56.182Z,100260.09
2023-02-21T01:48:26.312Z,100252.22
2023-02-21T01:50:58.333Z,100257.91
2023-02-21T01:53:27.482Z,100249.53
2023-02-21T01:55:58.624Z,100257.91
2023-02-21T01:58:28.931Z,100255.25
2023-02-21T02:00:55.792Z,100260.91
2023-02-21T02:03:23.380Z,100254.41
2023-02-21T02:05:56.824Z,100257.22
2023-02-21T02:08:29.670Z,100251.38
2023-02-21T02:11:15.163Z,100260.25
2023-02-21T02:14:10.605Z,100248.34
2023-02-21T02:16:46.918Z,100258.22
2023-02-21T02:19:51.477Z,100257.72
2023-02-21T02:23:06.240Z,100246.69
2023-02-21T02:26:07.377Z,100238.16
2023-02-21T02:29:04.826Z,100244.50
2023-02-21T02:32:00.210Z,100236.31
2023-02-21T02:34:49.498Z,100238.19
2023-02-21T02:37:30.355Z,100234.25
2023-02-21T02:40:14.430Z,100237.56
2023-02-21T02:42:56.563Z,100231.59
2023-02-21T02:45:31.929Z,100240.31
2023-02-21T02:48:10.985Z,100246.88
2023-02-21T02:50:41.638Z,100230.13
2023-02-21T02:53:08.789Z,100238.97
2023-02-21T02:55:44.356Z,100243.31
2023-02-21T02:58:12.432Z,100237.31
2023-02-21T03:00:43.476Z,100231.28
2023-02-21T03:03:46.216Z,100236.63
2023-02-21T03:06:38.196Z,100246.88
2023-02-21T03:09:16.102Z,100246.53
2023-02-21T03:11:56.750Z,100244.03
2023-02-21T03:14:37.023Z,100242.66
2023-02-21T03:17:11.812Z,100240.47
2023-02-21T03:19:44.647Z,100247.69
2023-02-21T03:22:18.733Z,100247.31
2023-02-21T03:24:52.056Z,100249.28
2023-02-21T03:27:23.410Z,100247.31
2023-02-21T03:30:04.761Z,100248.50
2023-02-21T03:32:37.583Z,100250.50
2023-02-21T03:35:06.360Z,100244.81
2023-02-21T03:37:39.197Z,100245.34
2023-02-21T03:40:14.143Z,100241.97
2023-02-21T03:42:46.130Z,100245.66
2023-02-21T03:45:15.619Z,100246.00
2023-02-21T03:47:44.773Z,100237.44
2023-02-21T03:50:11.722Z,100249.97
2023-02-21T03:52:43.865Z,100244.81
2023-02-21T03:55:11.506Z,100247.66
2023-02-21T03:57:38.488Z,100247.50
2023-02-21T04:00:06.562Z,100245.84
2023-02-21T04:02:42.506Z,100242.47
2023-02-21T04:05:13.466Z,100249.81
2023-02-21T04:07:42.796Z,100245.47
2023-02-21T04:10:10.759Z,100238.25
2023-02-21T04:12:43.084Z,100231.34
2023-02-21T04:15:11.228Z,100229.75
2023-02-21T04:17:38.177Z,100232.63
2023-02-21T04:20:07.951Z,100228.47
2023-02-21T04:22:38.830Z,100231.00
2023-02-21T04:25:08.567Z,100236.03
2023-02-21T04:27:42.058Z,100236.88
2023-02-21T04:30:11.605Z,100228.28
2023-02-21T04:32:38.619Z,100233.97
2023-02-21T04:35:09.826Z,100223.06
2023-02-21T04:37:37.581Z,100225.50
2023-02-21T04:40:07.469Z,100240.59
2023-02-21T04:42:35.451Z,100240.75
2023-02-21T04:45:03.272Z,100237.09
2023-02-21T04:47:30.900Z,100232.09
2023-02-21T04:50:05.554Z,100236.31
2023-02-21T04:52:32.872Z,100231.28
2023-02-21T04:54:59.782Z,100239.16
2023-02-21T04:57:28.016Z,100231.50
2023-02-21T04:59:58.237Z,100231.97
2023-02-21T05:02:25.495Z,100233.97
2023-02-21T05:04:52.607Z,100219.41
2023-02-21T05:07:20.095Z,100223.59
2023-02-21T05:09:46.963Z,100227.81
2023-02-21T05:12:13.959Z,100220.28
2023-02-21T05:14:42.077Z,100233.31
2023-02-21T05:17:09.573Z,100223.31
2023-02-21T05:19:36.518Z,100217.47
2023-02-21T05:22:04.062Z,100209.78
2023-02-21T05:24:31.056Z,100215.94
2023-02-21T05:26:58.447Z,100211.22
2023-02-21T05:29:25.936Z,100212.03
2023-02-21T05:31:54.172Z,100210.31
2023-02-21T05:34:21.040Z,100215.16
2023-02-21T05:36:48.094Z,100215.84
2023-02-21T05:39:14.950Z,100228.88
2023-02-21T05:41:48.022Z,100227.25
2023-02-21T05:44:17.615Z,100228.28
2023-02-21T05:46:44.692Z,100233.63
2023-02-21T05:49:13.222Z,100236.63
2023-02-21T05:51:44.205Z,100241.88
2023-02-21T05:54:17.235Z,100240.25
2023-02-21T05:56:46.405Z,100240.84
2023-02-21T05:59:15.971Z,100246.88
2023-02-21T06:01:43.238Z,100252.94
2023-02-21T06:04:12.534Z,100241.28
2023-02-21T06:06:39.636Z,100243.69
2023-02-21T06:09:08.984Z,100240.22
2023-02-21T06:11:38.878Z,100242.56
2023-02-21T06:14:09.137Z,100244.53
2023-02-21T06:16:38.744Z,100243.81
2023-02-21T06:19:08.230Z,100235.81
2023-02-21T06:21:36.769Z,100239.91
2023-02-21T06:24:04.704Z,100237.78
2023-02-21T06:26:31.939Z,100238.78
2023-02-21T06:28:59.105Z,100242.75
2023-02-21T06:31:27.023Z,100243.19
2023-02-21T06:33:53.816Z,100240.78
2023-02-21T06:36:24.366Z,100245.50
2023-02-21T06:38:56.209Z,100236.50
2023-02-21T06:41:26.490Z,100233.59
2023-02-21T06:43:54.510Z,100240.94
2023-02-21T06:46:24.802Z,100233.31
2023-02-21T06:48:52.479Z,100227.41
2023-02-21T06:51:20.267Z,100232.13
2023-02-21T06:53:50.642Z,100243.81
2023-02-21T06:56:18.741Z,100234.00
2023-02-21T06:58:45.671Z,100239.00
2023-02-21T07:01:13.231Z,100233.66
2023-02-21T07:03:41.056Z,100237.47
2023-02-21T07:06:08.020Z,100231.69
2023-02-21T07:08:36.384Z,100246.47
2023-02-21T07:11:04.111Z,100232.06
2023-02-21T07:13:39.722Z,100232.78
2023-02-21T07:16:08.883Z,100227.88
2023-02-21T07:18:37.717Z,100233.22
2023-02-21T07:21:04.924Z,100230.16
2023-02-21T07:23:31.756Z,100226.41
2023-02-21T07:25:58.525Z,100232.34
2023-02-21T07:28:25.416Z,100222.13
2023-02-21T07:30:53.543Z,100222.84
2023-02-21T07:33:21.839Z,100219.41
2023-02-21T07:35:48.569Z,100221.25
2023-02-21T07:38:20.938Z,100218.81
2023-02-21T07:40:49.347Z,100219.44
2023-02-21T07:43:17.019Z,100222.41
2023-02-21T07:45:44.269Z,100220.56
2023-02-21T07:48:12.780Z,100225.19
2023-02-21T07:50:39.638Z,100232.19
2023-02-21T07:53:06.421Z,100237.50
2023-02-21T07:55:33.300Z,100230.25
2023-02-21T07:58:01.200Z,100237.75
2023-02-21T08:00:28.009Z,100234.47
2023-02-21T08:02:54.932Z,100233.84
2023-02-21T08:05:23.918Z,100231.63
2023-02-21T08:07:50.890Z,100230.22
2023-02-21T08:10:27.874Z,100218.91
2023-02-21T08:12:55.651Z,100224.94
2023-02-21T08:15:22.541Z,100222.41
2023-02-21T08:17:51.188Z,100224.13
2023-02-21T08:20:19.198Z,100220.13
2023-02-21T08:22:47.601Z,100220.00
2023-02-21T08:25:16.944Z,100222.28
2023-02-21T08:27:44.964Z,100228.59
2023-02-21T08:30:17.216Z,100217.16
2023-02-21T08:32:44.072Z,100227.34
2023-02-21T08:35:14.270Z,100226.50
2023-02-21T08:37:44.721Z,100234.28
2023-02-21T08:40:14.472Z,100233.53
2023-02-21T08:42:42.204Z,100240.16
2023-02-21T08:45:17.940Z,100240.13
2023-02-21T08:47:46.320Z,100237.16
2023-02-21T08:50:13.615Z,100236.44
2023-02-21T08:52:40.788Z,100233.53
2023-02-21T08:55:08.859Z,100233.94
2023-02-21T08:57:37.084Z,100233.38
2023-02-21T09:00:05.704Z,100224.75
2023-02-21T09:02:32.484Z,100231.34
2023-02-21T09:04:59.403Z,100224.78
2023-02-21T09:07:26.389Z,100222.88
2023-02-21T09:09:53.165Z,100218.06
2023-02-21T09:12:19.956Z,100224.34
2023-02-21T09:14:48.113Z,100220.63
2023-02-21T09:17:14.936Z,100212.88
2023-02-21T09:19:42.077Z,100223.53
2023-02-21T09:22:10.445Z,100224.81
2023-02-21T09:24:39.679Z,100217.19
2023-02-21T09:27:06.692Z,100215.66
2023-02-21T09:29:45.902Z,100214.75
2023-02-21T09:32:14.809Z,100211.53
2023-02-21T09:34:41.724Z,100216.53
2023-02-21T09:37:08.665Z,100210.72
2023-02-21T09:39:37.217Z,100210.16
2023-02-21T09:42:04.301Z,100211.28
2023-02-21T09:44:31.188Z,100208.88
2023-02-21T09:47:03.226Z,100214.97
2023-02-21T09:49:37.215Z,100206.31
2023-02-21T09:52:16.193Z,100209.91
2023-02-21T09:54:52.160Z,100207.91
2023-02-21T09:57:19.119Z,100207.50
2023-02-21T09:59:47.789Z,100197.41
2023-02-21T10:02:41.864Z,100203.63
2023-02-21T10:05:42.145Z,100213.91
2023-02-21T10:08:26.426Z,100204.88
2023-02-21T10:10:59.046Z,100196.84
2023-02-21T10:13:40.551Z,100199.25
2023-02-21T10:16:17.446Z,100201.03
2023-02-21T10:18:59.191Z,100204.53
2023-02-21T10:21:35.499Z,100195.16
2023-02-21T10:24:12.221Z,100194.81
2023-02-21T10:26:43.049Z,100197.56
2023-02-21T10:29:23.589Z,100182.63
2023-02-21T10:32:00.144Z,100192.84
2023-02-21T10:34:30.536Z,100185.75
2023-02-21T10:37:22.432Z,100187.78
2023-02-21T10:39:55.586Z,100188.25
2023-02-21T10:42:34.584Z,100186.28
2023-02-21T10:45:05.432Z,100184.13
2023-02-21T10:47:49.275Z,100182.44
2023-02-21T10:50:16.476Z,100188.66
2023-02-21T10:52:51.640Z,100181.66
2023-02-21T10:55:32.306Z,100173.13
2023-02-21T10:58:09.072Z,100170.34
2023-02-21T11:00:38.767Z,100168.09
2023-02-21T11:03:19.878Z,100164.81
2023-02-21T11:05:50.330Z,100162.88
2023-02-21T11:08:37.614Z,100158.97
2023-02-21T11:11:06.337Z,100152.22
2023-02-21T11:13:34.445Z,100152.72
2023-02-21T11:16:11.750Z,100145.41
2023-02-21T11:18:38.597Z,100141.84
2023-02-21T11:21:13.949Z,100137.78
2023-02-21T11:23:55.687Z,100136.09
2023-02-21T11:26:22.596Z,100132.75
2023-02-21T11:28:49.616Z,100128.06
2023-02-21T11:31:27.144Z,100120.22
2023-02-21T11:33:59.448Z,100120.00
2023-02-21T11:36:30.377Z,100111.44
2023-02-21T11:39:06.876Z,100104.91
2023-02-21T11:41:44.701Z,100106.81
2023-02-21T11:44:31.979Z,100102.75
2023-02-21T11:47:13.844Z,100094.38
2023-02-21T11:49:53.911Z,100100.63
2023-02-21T11:52:26.894Z,100099.13
2023-02-21T11:54:55.452Z,100088.41
2023-02-21T11:57:35.445Z,100084.31
2023-02-21T12:00:22.878Z,100076.63
2023-02-21T12:03:37.552Z,100065.88
2023-02-21T12:06:20.947Z,100072.03
2023-02-21T12:08:56.218Z,100071.00
2023-02-21T12:11:41.259Z,100066.81
2023-02-21T12:14:23.842Z,100053.13
2023-02-21T12:17:08.334Z,100049.72
2023-02-21T12:20:08.119Z,100040.91
2023-02-21T12:22:57.415Z,100026.56
2023-02-21T12:25:47.801Z,100026.53
2023-02-21T12:28:31.736Z,100016.94
2023-02-21T12:31:23.045Z,100008.78
2023-02-21T12:34:12.413Z,100014.16
2023-02-21T12:37:06.755Z,100000.44
2023-02-21T12:39:57.132Z,100001.66
2023-02-21T12:42:44.304Z,99995.50
2023-02-21T12:45:36.786Z,99987.00
2023-02-21T12:48:17.872Z,99984.28
2023-02-21T12:50:52.816Z,99979.78
2023-02-21T12:53:29.290Z,99972.88
2023-02-21T12:56:05.666Z,99974.41
2023-02-21T12:58:40.726Z,99962.94
2023-02-21T13:01:19.356Z,99958.13
2023-02-21T13:04:02.995Z,99950.50
2023-02-21T13:06:35.396Z,99949.50
2023-02-21T13:09:17.579Z,99948.69
2023-02-21T13:11:58.782Z,99936.91
2023-02-21T13:14:33.846Z,99931.50
2023-02-21T13:17:02.082Z,99932.41
2023-02-21T13:19:44.721Z,99935.03
2023-02-21T13:23:09.233Z,99924.34
2023-02-21T13:26:21.275Z,99918.69
2023-02-21T13:28:53.340Z,99912.72
2023-02-21T13:31:24.670Z,99905.78
2023-02-21T13:33:59.173Z,99909.66
2023-02-21T13:36:31.535Z,99898.69
2023-02-21T13:39:04.981Z,99899.88
2023-02-21T13:41:38.519Z,99898.38
2023-02-21T13:44:09.590Z,99889.22
2023-02-21T13:47:14.058Z,99872.22
2023-02-21T13:49:56.177Z,99871.78
2023-02-21T13:52:36.135Z,99865.59
2023-02-21T13:55:32.086Z,99866.78
2023-02-21T13:58:32.246Z,99856.75
2023-02-21T14:01:42.442Z,99863.38
2023-02-21T14:05:00.597Z,99848.41
2023-02-21T14:07:57.906Z,99846.19
2023-02-21T14:10:37.388Z,99849.00
2023-02-21T14:13:19.862Z,99849.56
2023-02-21T14:15:51.465Z,99842.09
2023-02-21T14:18:27.765Z,99837.38
2023-02-21T14:20:57.822Z,99834.97
2023-02-21T14:23:42.287Z,99836.13
2023-02-21T14:26:40.622Z,99834.28
2023-02-21T14:29:31.814Z,99830.19
2023-02-21T14:32:32.680Z,99827.88
2023-02-21T14:34:59.821Z,99817.97
2023-02-21T14:37:36.776Z,99822.94
2023-02-21T14:40:31.744Z,99814.75
2023-02-21T14:43:25.127Z,99818.81
2023-02-21T14:46:14.691Z,99812.25
2023-02-21T14:49:17.362Z,99812.19
2023-02-21T14:52:33.937Z,99804.75
2023-02-21T14:55:35.575Z,99802.00
2023-02-21T14:58:40.462Z,99805.97
2023-02-21T15:01:20.155Z,99809.66
2023-02-21T15:03:59.562Z,99801.59
2023-02-21T15:06:31.716Z,99800.50
2023-02-21T15:09:13.739Z,99790.22
2023-02-21T15:11:43.231Z,99798.22
2023-02-21T15:14:17.417Z,99794.34
2023-02-21T15:16:47.282Z,99788.22
2023-02-21T15:19:36.220Z,99787.25
2023-02-21T15:22:22.989Z,99794.84
2023-02-21T15:25:20.005Z,99785.59
2023-02-21T15:28:05.710Z,99782.06
2023-02-21T15:30:38.482Z,99780.97
2023-02-21T15:33:13.836Z,99778.59
2023-02-21T15:35:48.656Z,99775.03
2023-02-21T15:38:29.451Z,99769.06
2023-02-21T15:41:06.242Z,99772.88
2023-02-21T15:43:49.969Z,99774.19
2023-02-21T15:46:22.660Z,99768.97
2023-02-21T15:48:51.480Z,99764.63
2023-02-21T15:51:19.144Z,99759.16
2023-02-21T15:54:22.822Z,99758.53
2023-02-21T15:57:07.332Z,99756.56
2023-02-21T15:59:38.354Z,99755.66
2023-02-21T16:02:17.726Z,99741.16
2023-02-21T16:04:47.870Z,99744.13
2023-02-21T16:07:21.954Z,99737.19
2023-02-21T16:09:57.774Z,99740.66
2023-02-21T16:12:33.214Z,99737.03
2023-02-21T16:15:19.614Z,99746.19
2023-02-21T16:17:55.260Z,99735.69
2023-02-21T16:20:27.839Z,99742.38
2023-02-21T16:23:21.605Z,99744.19
2023-02-21T16:25:58.544Z,99737.75
2023-02-21T16:28:26.427Z,99742.03
2023-02-21T16:30:57.029Z,99739.47
2023-02-21T16:33:24.520Z,99746.13
2023-02-21T16:35:51.805Z,99738.81
2023-02-21T16:38:22.642Z,99743.00
2023-02-21T16:40:51.145Z,99740.06
2023-02-21T16:43:22.734Z,99734.19
2023-02-21T16:45:53.357Z,99748.63
2023-02-21T16:48:24.370Z,99741.91
2023-02-21T16:50:52.075Z,99732.75
2023-02-21T16:53:21.449Z,99753.56
2023-02-21T16:55:50.695Z,99748.03
2023-02-21T16:58:22.994Z,99745.78
2023-02-21T17:00:51.947Z,99747.19
2023-02-21T17:03:19.261Z,99740.84
2023-02-21T17:05:50.397Z,99745.19
2023-02-21T17:08:18.222Z,99748.22
2023-02-21T17:10:45.464Z,99749.16
2023-02-21T17:13:12.315Z,99750.69
2023-02-21T17:15:39.325Z,99751.53
2023-02-21T17:18:23.096Z,99749.06
2023-02-21T17:21:00.741Z,99749.88
2023-02-21T17:23:34.428Z,99741.38
2023-02-21T17:26:08.837Z,99747.50
2023-02-21T17:28:38.972Z,99745.50
2023-02-21T17:31:09.559Z,99746.19
2023-02-21T17:33:40.833Z,99747.66
2023-02-21T17:36:20.760Z,99747.25
2023-02-21T17:38:51.953Z,99746.25
2023-02-21T17:41:29.466Z,99756.50
2023-02-21T17:44:02.763Z,99756.34
2023-02-21T17:46:35.240Z,99755.31
2023-02-21T17:49:02.673Z,99762.00
2023-02-21T17:51:31.451Z,99761.19
2023-02-21T17:54:01.706Z,99764.53
2023-02-21T17:56:28.672Z,99770.75
2023-02-21T17:58:56.203Z,99773.91
2023-02-21T18:01:28.712Z,99769.31
2023-02-21T18:03:57.861Z,99775.56
2023-02-21T18:06:25.598Z,99780.53
2023-02-21T18:08:58.341Z,99780.00
2023-02-21T18:11:26.633Z,99780.81
2023-02-21T18:13:56.984Z,99769.97
2023-02-21T18:16:24.869Z,99778.53
2023-02-21T18:18:52.484Z,99787.91
2023-02-21T18:21:20.282Z,99779.41
2023-02-21T18:23:47.414Z,99781.00
2023-02-21T18:26:17.117Z,99783.84
2023-02-21T18:28:44.185Z,99778.69
2023-02-21T18:31:15.542Z,99787.63
2023-02-21T18:33:46.662Z,99788.41
2023-02-21T18:36:14.880Z,99780.75
2023-02-21T18:38:42.179Z,99788.06
2023-02-21T18:41:11.315Z,99786.84
2023-02-21T18:43:40.902Z,99792.69
2023-02-21T18:46:11.270Z,99790.91
2023-02-21T18:48:42.285Z,99784.25
2023-02-21T18:51:10.905Z,99792.16
2023-02-21T18:53:38.842Z,99790.66
2023-02-21T18:56:09.813Z,99793.16
2023-02-21T18:58:36.825Z,99789.16
2023-02-21T19:01:07.240Z,99785.41
2023-02-21T19:03:34.774Z,99782.09
2023-02-21T19:06:02.476Z,99786.06
2023-02-21T19:08:29.919Z,99789.63
2023-02-21T19:10:57.315Z,99782.53
2023-02-21T19:13:24.765Z,99785.84
2023-02-21T19:15:51.999Z,99790.00
2023-02-21T19:18:21.114Z,99782.75
2023-02-21T19:20:48.376Z,99780.91
2023-02-21T19:23:16.273Z,99783.38
2023-02-21T19:25:43.834Z,99787.47
2023-02-21T19:28:11.863Z,99789.25
2023-02-21T19:30:39.092Z,99787.97
2023-02-21T19:33:08.173Z,99787.75
2023-02-21T19:35:36.512Z,99787.97
2023-02-21T19:38:06.917Z,99780.53
2023-02-21T19:40:35.317Z,99779.97
2023-02-21T19:43:03.518Z,99783.91
2023-02-21T19:45:30.592Z,99779.56
2023-02-21T19:47:57.521Z,99781.97
2023-02-21T19:50:24.804Z,99788.78
2023-02-21T19:52:54.770Z,99786.22
2023-02-21T19:55:22.107Z,99782.75
2023-02-21T19:57:49.213Z,99790.47
2023-02-21T20:00:16.878Z,99783.69
2023-02-21T20:02:44.135Z,99782.56
2023-02-21T20:05:11.416Z,99791.91
2023-02-21T20:07:38.240Z,99788.28
2023-02-21T20:10:07.266Z,99780.19
2023-02-21T20:12:34.190Z,99794.31
2023-02-21T20:15:01.501Z,99787.59
2023-02-21T20:17:28.374Z,99786.34
2023-02-21T20:19:55.430Z,99786.28
2023-02-21T20:22:22.685Z,99783.44
2023-02-21T20:24:49.587Z,99783.63
2023-02-21T20:27:17.789Z,99782.00
2023-02-21T20:29:47.648Z,99781.00
2023-02-21T20:32:14.568Z,99781.06
2023-02-21T20:34:41.512Z,99792.69
2023-02-21T20:37:08.553Z,99787.28
2023-02-21T20:39:35.771Z,99786.03
2023-02-21T20:42:04.142Z,99794.56
2023-02-21T20:44:36.680Z,99790.00
2023-02-21T20:47:05.813Z,99790.84
2023-02-21T20:49:32.723Z,99784.41
2023-02-21T20:51:59.546Z,99788.09
2023-02-21T20:54:26.588Z,99785.19
2023-02-21T20:56:55.946Z,99788.94
2023-02-21T20:59:26.773Z,99781.44
2023-02-21T21:01:56.790Z,99788.03
2023-02-21T21:04:26.826Z,99787.19
2023-02-21T21:06:56.763Z,99782.84
2023-02-21T21:09:24.548Z,99781.56
2023-02-21T21:11:51.501Z,99790.81
2023-02-21T21:14:18.386Z,99792.44
2023-02-21T21:16:45.197Z,99784.38
2023-02-21T21:19:13.341Z,99795.25
2023-02-21T21:21:40.183Z,99783.66
2023-02-21T21:24:07.581Z,99789.25
2023-02-21T21:26:34.468Z,99789.38
2023-02-21T21:29:01.264Z,99788.66
2023-02-21T21:31:28.233Z,99793.94
2023-02-21T21:33:55.247Z,99788.03
2023-02-21T21:36:23.539Z,99794.16
2023-02-21T21:38:50.417Z,99794.59
2023-02-21T21:41:17.395Z,99790.06
2023-02-21T21:43:46.025Z,99772.22
2023-02-21T21:46:14.170Z,99778.59
2023-02-21T21:48:43.979Z,99769.06
2023-02-21T21:51:11.821Z,99767.09
2023-02-21T21:53:40.148Z,99766.09
2023-02-21T21:56:07.399Z,99765.94
2023-02-21T21:58:34.717Z,99762.81
2023-02-21T22:01:02.598Z,99758.16
2023-02-21T22:03:29.431Z,99771.47
2023-02-21T22:05:56.969Z,99764.56
2023-02-21T22:08:25.390Z,99769.59
2023-02-21T22:10:53.818Z,99761.59
2023-02-21T22:13:21.800Z,99754.19
2023-02-21T22:15:49.246Z,99768.03
2023-02-21T22:18:19.458Z,99763.22
2023-02-21T22:20:47.052Z,99755.81
2023-02-21T22:23:14.416Z,99759.81
2023-02-21T22:25:41.421Z,99752.16
2023-02-21T22:28:12.911Z,99746.59
2023-02-21T22:30:40.979Z,99745.41
2023-02-21T22:33:10.754Z,99747.06
2023-02-21T22:35:37.529Z,99755.00
2023-02-21T22:38:04.455Z,99754.63
2023-02-21T22:40:32.713Z,99746.06
2023-02-21T22:43:03.290Z,99752.00
2023-02-21T22:45:32.286Z,99753.91
2023-02-21T22:48:01.257Z,99745.91
2023-02-21T22:50:28.182Z,99745.72
2023-02-21T22:52:58.280Z,99740.22
2023-02-21T22:55:27.612Z,99737.22
2023-02-21T22:57:57.620Z,99743.28
2023-02-21T23:00:28.201Z,99754.06
2023-02-21T23:02:56.413Z,99750.97
2023-02-21T23:05:23.637Z,99745.13
2023-02-21T23:07:54.145Z,99750.47
2023-02-21T23:10:24.372Z,99749.06
2023-02-21T23:12:54.350Z,99752.06
2023-02-21T23:15:23.088Z,99744.56
2023-02-21T23:17:51.687Z,99739.16
2023-02-21T23:20:23.440Z,99745.25
2023-02-21T23:22:53.831Z,99747.88
2023-02-21T23:25:24.725Z,99741.22
2023-02-21T23:27:55.781Z,99737.16
2023-02-21T23:30:25.888Z,99738.94
2023-02-21T23:32:55.318Z,99736.72
2023-02-21T23:35:23.507Z,99733.38
2023-02-21T23:37:50.347Z,99735.50
2023-02-21T23:40:21.581Z,99740.59
2023-02-21T23:42:51.454Z,99731.41
2023-02-21T23:45:21.236Z,99735.00
2023-02-21T23:47:50.537Z,99730.47
2023-02-21T23:50:23.652Z,99732.41
2023-02-21T23:52:53.539Z,99733.41
2023-02-21T23:55:24.090Z,99735.84
2023-02-21T23:57:52.756Z,99732.34
